LSGG METAR and TAF | Updated Today

LSGG METAR

Geneva Cointrin International Airport

Observation time: 24 min. ago

LSGG 052120Z 01004KT 340V040 9999 FEW020 SCT040 03/01 Q1033 NOSIG

Need help? Read our tutorial on how to read METARs or read the parsed version below.

Geneva Cointrin International Airport (LSGG) METAR

  • Weather conditions on Sun, 05 Feb 2023 21:20:00 +0000 (24 min. ago):
  • Present conditions: Dry
  • Clouds: A few at 610 meters; scattered at 1219 meters
  • Visibility: Greater than 10 km
  • Wind: 10 degrees at 4 knots
  • Temperature: 3 celsius
  • Dew point: 1 celsius
  • Pressure: 1033 millibars
  • Remarks: None


Useful to know...

LSGG TAF

Geneva Cointrin International Airport

TAF LSGG 052025Z 0521/0703 03005KT 9999 BKN035 TX06/0615Z TN02/0605Z BECMG 0603/0606 03015KT
Observation time: 79 min. ago
Need help? Read our tutorial on how to read TAFs or read the parsed version below.

Parsed version of TAF for Geneva Cointrin International Airport (LSGG)

  • From 05 February at 21:00 UTC, to day 07 of the month at 03:00 UTC
  • Clouds: Broken sky at 1067 meters
  • Visibility: Greater than 10 km
  • Wind: 30 degrees at 5
  • Expected to arise soon, from 06 February at 03:00 UTC, to day 06 of the month at 06:00 UTC
  • Wind: 30 degrees at 15